Alfred, Maine
Current Conditions -  °F | °C
As of 2:35 AM on Thursday 18 Dec 2014 (Local Time) from KSFM Reporting Station
Clear Clear  
Wind Chill:   Ceiling: Unl
Heat Index:   Visibility: 10mi
Dew Point:   Wind: 10mph
Humidity: 75%   Direction: 280°W
Pressure: 29.65"   Gusts: NA
Location:  43.48°N, 70.72°W
Report Text: KSFM 180735Z AUTO 28009KT 10SM CLR 04/00 A2965 RMK AO1
Loading
Personal Weather Stations






























Interactive Weather Map New forecast layout! Learn more

10-Day Weather Forecast

Advertisements
Track Severe Weather on mobile